Time;durP1;ratioP1;P1;durP2;ratioP2;P2;SDS_P1;SDS_P2;PMS_P1;PMS_P2;Temp;Humidity;BMP_temperature;BMP_pressure;BME280_temperature;BME280_humidity;BME280_pressure;Samples;Min_cycle;Max_cycle;Signal;HPM_P1;HPM_P2
2023/05/24 00:01:47;;;;;;;5.88;3.17;;;;;;;;;;5064385;28;20431;-69
2023/05/24 00:04:13;;;;;;;2.90;2.70;;;;;;;;;;5064159;28;20288;-69
2023/05/24 00:06:40;;;;;;;4.28;3.03;;;;;;;;;;5064348;28;20197;-69
2023/05/24 00:09:06;;;;;;;3.85;3.17;;;;;;;;;;5064053;28;20193;-69
2023/05/24 00:11:33;;;;;;;6.53;3.15;;;;;;;;;;5064243;28;20235;-69
2023/05/24 00:13:59;;;;;;;2.90;2.70;;;;;;;;;;5064002;28;20298;-69
2023/05/24 00:16:27;;;;;;;3.15;2.80;;;;;;;;;;5064347;28;20193;-69
2023/05/24 00:18:53;;;;;;;4.47;2.75;;;;;;;;;;5063973;28;20256;-69
2023/05/24 00:21:20;;;;;;;3.08;2.40;;;;;;;;;;5063903;28;20201;-69
2023/05/24 00:23:46;;;;;;;3.47;2.97;;;;;;;;;;5063748;28;20201;-69
2023/05/24 00:26:12;;;;;;;2.72;2.60;;;;;;;;;;5064008;28;20217;-69
2023/05/24 00:28:38;;;;;;;5.18;2.90;;;;;;;;;;5063972;28;20579;-69
2023/05/24 00:31:07;;;;;;;3.33;2.90;;;;;;;;;;5063946;28;20501;-69
2023/05/24 00:33:34;;;;;;;4.50;2.85;;;;;;;;;;5063643;28;20201;-69
2023/05/24 00:36:00;;;;;;;2.88;2.70;;;;;;;;;;5063771;28;20193;-69
2023/05/24 00:38:27;;;;;;;2.83;2.67;;;;;;;;;;5064020;28;20197;-69
2023/05/24 00:40:55;;;;;;;3.03;2.83;;;;;;;;;;5063530;28;20197;-69
2023/05/24 00:43:21;;;;;;;2.85;2.65;;;;;;;;;;5063619;28;20268;-69
2023/05/24 00:45:47;;;;;;;3.33;3.08;;;;;;;;;;5063624;28;20225;-69
2023/05/24 00:48:14;;;;;;;3.20;3.00;;;;;;;;;;5063635;28;20251;-69
2023/05/24 00:50:41;;;;;;;2.58;2.47;;;;;;;;;;5063324;28;20209;-69
2023/05/24 00:53:09;;;;;;;2.97;2.65;;;;;;;;;;5063423;28;20259;-69
2023/05/24 00:55:35;;;;;;;3.17;2.88;;;;;;;;;;5063427;28;20202;-69
2023/05/24 00:58:02;;;;;;;3.20;2.90;;;;;;;;;;5063434;28;20204;-69
2023/05/24 01:00:29;;;;;;;3.67;2.90;;;;;;;;;;5063384;28;20197;-69
2023/05/24 01:02:55;;;;;;;3.97;2.70;;;;;;;;;;5063102;28;20250;-69
2023/05/24 01:05:22;;;;;;;4.18;2.42;;;;;;;;;;5063647;28;20519;-69
2023/05/24 01:07:54;;;;;;;3.95;2.50;;;;;;;;;;5062639;28;20268;-69
2023/05/24 01:10:25;;;;;;;7.07;2.88;;;;;;;;;;5063124;28;20251;-69
2023/05/24 01:12:56;;;;;;;3.50;3.10;;;;;;;;;;5063063;28;20615;-69
2023/05/24 01:15:24;;;;;;;5.35;3.08;;;;;;;;;;5062855;28;20208;-69
2023/05/24 01:17:54;;;;;;;3.92;2.38;;;;;;;;;;5063311;28;20566;-69
2023/05/24 01:20:21;;;;;;;3.67;2.55;;;;;;;;;;5063144;28;20275;-69
2023/05/24 01:23:03;;;;;;;2.70;2.50;;;;;;;;;;5062591;28;20197;-69
2023/05/24 01:25:40;;;;;;;4.22;2.92;;;;;;;;;;5062802;28;20225;-69
2023/05/24 01:28:08;;;;;;;6.40;2.50;;;;;;;;;;5062851;28;20216;-69
2023/05/24 01:30:36;;;;;;;4.07;2.75;;;;;;;;;;5062938;28;20243;-69
2023/05/24 01:33:02;;;;;;;2.80;2.60;;;;;;;;;;5062574;28;20512;-69
2023/05/24 01:35:28;;;;;;;3.08;2.60;;;;;;;;;;5062639;28;20567;-69
2023/05/24 01:37:54;;;;;;;4.25;2.67;;;;;;;;;;5062436;28;20201;-69
2023/05/24 01:40:21;;;;;;;4.57;2.70;;;;;;;;;;5062436;28;20235;-69
2023/05/24 01:42:52;;;;;;;4.45;2.78;;;;;;;;;;5062471;28;20209;-69
2023/05/24 01:45:22;;;;;;;3.78;2.72;;;;;;;;;;5062694;28;20245;-69
2023/05/24 01:48:01;;;;;;;3.72;2.72;;;;;;;;;;5062450;28;20509;-69
2023/05/24 01:50:28;;;;;;;9.52;3.05;;;;;;;;;;5062386;28;20197;-69
2023/05/24 01:52:56;;;;;;;7.90;3.50;;;;;;;;;;5062145;28;20243;-69
2023/05/24 01:55:22;;;;;;;5.75;3.15;;;;;;;;;;5062567;28;20248;-69
2023/05/24 01:57:50;;;;;;;6.20;2.78;;;;;;;;;;5062481;28;20200;-69
2023/05/24 02:00:18;;;;;;;5.53;2.92;;;;;;;;;;5062216;28;20196;-69
2023/05/24 02:02:45;;;;;;;3.17;2.75;;;;;;;;;;5061636;28;20196;-69
2023/05/24 02:05:12;;;;;;;8.88;2.80;;;;;;;;;;5062012;28;20221;-69
2023/05/24 02:07:40;;;;;;;4.45;2.75;;;;;;;;;;5062126;28;20235;-69
2023/05/24 02:10:06;;;;;;;4.78;2.67;;;;;;;;;;5062184;28;20197;-69
2023/05/24 02:12:33;;;;;;;4.93;2.90;;;;;;;;;;5062070;28;20497;-69
2023/05/24 02:14:59;;;;;;;5.55;3.17;;;;;;;;;;5062055;28;20201;-69
2023/05/24 02:17:26;;;;;;;4.63;2.90;;;;;;;;;;5062054;28;20372;-69
2023/05/24 02:19:53;;;;;;;3.78;2.67;;;;;;;;;;5061821;28;20430;-68
2023/05/24 02:22:21;;;;;;;7.97;3.00;;;;;;;;;;5061962;28;20396;-68
2023/05/24 02:24:47;;;;;;;8.07;2.75;;;;;;;;;;5062015;28;20220;-68
2023/05/24 02:27:13;;;;;;;9.98;2.85;;;;;;;;;;5062214;28;20220;-68
2023/05/24 02:29:40;;;;;;;7.30;2.90;;;;;;;;;;5062058;28;20247;-68
2023/05/24 02:32:06;;;;;;;4.35;2.90;;;;;;;;;;5061908;28;20264;-68
2023/05/24 02:34:33;;;;;;;7.10;3.30;;;;;;;;;;5061551;28;20508;-68
2023/05/24 02:37:00;;;;;;;6.38;2.97;;;;;;;;;;5061808;28;20200;-68
2023/05/24 02:39:27;;;;;;;7.75;2.95;;;;;;;;;;5062012;28;20197;-68
2023/05/24 02:41:53;;;;;;;6.13;2.78;;;;;;;;;;5061771;28;20434;-68
2023/05/24 02:44:19;;;;;;;6.97;3.28;;;;;;;;;;5061695;28;20201;-68
2023/05/24 02:46:46;;;;;;;7.57;3.72;;;;;;;;;;5061681;28;20220;-68
2023/05/24 02:49:12;;;;;;;7.05;3.15;;;;;;;;;;5061904;28;20197;-68
2023/05/24 02:51:38;;;;;;;8.55;3.08;;;;;;;;;;5061818;28;20196;-68
2023/05/24 02:54:06;;;;;;;9.35;3.47;;;;;;;;;;5061535;28;20193;-68
2023/05/24 02:56:33;;;;;;;8.30;3.00;;;;;;;;;;5061611;28;20239;-68
2023/05/24 02:58:59;;;;;;;9.60;3.25;;;;;;;;;;5061650;28;20212;-68
2023/05/24 03:01:25;;;;;;;8.95;3.67;;;;;;;;;;5061571;28;20424;-68
2023/05/24 03:03:52;;;;;;;8.73;3.38;;;;;;;;;;5061610;28;20365;-68
2023/05/24 03:06:18;;;;;;;6.32;3.28;;;;;;;;;;5061638;28;20236;-68
2023/05/24 03:08:44;;;;;;;6.75;3.45;;;;;;;;;;5061662;28;20200;-68
2023/05/24 03:11:12;;;;;;;6.72;3.00;;;;;;;;;;5061645;28;20197;-68
2023/05/24 03:13:39;;;;;;;6.28;3.25;;;;;;;;;;5061440;28;20508;-68
2023/05/24 03:16:05;;;;;;;16.88;6.50;;;;;;;;;;5065124;28;20407;-68
2023/05/24 03:18:31;;;;;;;8.90;4.10;;;;;;;;;;5065314;28;20208;-68
2023/05/24 03:20:58;;;;;;;10.23;4.30;;;;;;;;;;5065352;28;20431;-68
2023/05/24 03:23:24;;;;;;;8.80;4.55;;;;;;;;;;5065317;28;20493;-68
2023/05/24 03:25:50;;;;;;;9.20;3.80;;;;;;;;;;5064954;28;20233;-68
2023/05/24 03:28:20;;;;;;;10.73;4.13;;;;;;;;;;5065184;28;20416;-68
2023/05/24 03:30:47;;;;;;;9.30;3.67;;;;;;;;;;5064979;28;20267;-68
2023/05/24 03:33:13;;;;;;;10.10;4.40;;;;;;;;;;5064993;28;20205;-68
2023/05/24 03:35:39;;;;;;;10.73;4.45;;;;;;;;;;5064926;28;20230;-68
2023/05/24 03:38:06;;;;;;;8.48;3.10;;;;;;;;;;5065002;28;20366;-68
2023/05/24 03:40:33;;;;;;;8.25;3.63;;;;;;;;;;5064867;28;20415;-68
2023/05/24 03:42:59;;;;;;;8.07;4.18;;;;;;;;;;5064502;28;20204;-68
2023/05/24 03:45:27;;;;;;;9.32;3.40;;;;;;;;;;5064576;28;20205;-68
2023/05/24 03:47:53;;;;;;;8.98;2.85;;;;;;;;;;5064709;28;20239;-68
2023/05/24 03:50:19;;;;;;;10.65;3.85;;;;;;;;;;5064461;28;20235;-68
2023/05/24 03:52:46;;;;;;;10.20;3.40;;;;;;;;;;5064532;28;20399;-68
2023/05/24 03:55:13;;;;;;;7.95;3.72;;;;;;;;;;5064543;28;20204;-68
2023/05/24 03:57:40;;;;;;;6.10;3.33;;;;;;;;;;5064368;28;20268;-68
2023/05/24 04:00:07;;;;;;;6.00;3.60;;;;;;;;;;5064559;28;20201;-68
2023/05/24 04:02:36;;;;;;;9.73;3.30;;;;;;;;;;5064441;28;20225;-68
2023/05/24 04:05:03;;;;;;;11.48;3.72;;;;;;;;;;5064455;28;20296;-68
2023/05/24 04:07:32;;;;;;;12.70;3.83;;;;;;;;;;5064339;28;20255;-68
2023/05/24 04:09:59;;;;;;;8.18;3.33;;;;;;;;;;5064335;28;20547;-68
2023/05/24 04:12:25;;;;;;;8.30;3.45;;;;;;;;;;5063958;28;20266;-68
2023/05/24 04:14:51;;;;;;;6.80;3.17;;;;;;;;;;5064268;28;20436;-68
2023/05/24 04:17:17;;;;;;;10.95;4.00;;;;;;;;;;5064150;28;20193;-69
2023/05/24 04:19:46;;;;;;;6.80;3.38;;;;;;;;;;5064318;28;20197;-68
2023/05/24 04:22:12;;;;;;;9.88;3.22;;;;;;;;;;5064173;28;20415;-68
2023/05/24 04:24:38;;;;;;;10.50;3.28;;;;;;;;;;5063365;28;20252;-68
2023/05/24 04:27:04;;;;;;;3.58;3.20;;;;;;;;;;5063950;28;20424;-68
2023/05/24 04:29:32;;;;;;;10.63;4.15;;;;;;;;;;5064049;28;20219;-68
2023/05/24 04:31:59;;;;;;;7.05;3.40;;;;;;;;;;5064106;28;20529;-68
2023/05/24 04:34:28;;;;;;;5.43;3.47;;;;;;;;;;5064145;28;20197;-68
2023/05/24 04:36:56;;;;;;;7.53;3.38;;;;;;;;;;5063718;28;20201;-69
2023/05/24 04:39:22;;;;;;;7.85;4.53;;;;;;;;;;5063586;28;20264;-69
2023/05/24 04:41:51;;;;;;;8.95;3.50;;;;;;;;;;5063745;28;20209;-69
2023/05/24 04:44:18;;;;;;;7.07;3.50;;;;;;;;;;5063650;28;20198;-69
2023/05/24 04:46:44;;;;;;;6.68;3.30;;;;;;;;;;5063393;28;20225;-69
2023/05/24 04:49:10;;;;;;;8.32;3.47;;;;;;;;;;5063417;28;20200;-69
2023/05/24 04:51:37;;;;;;;12.15;3.97;;;;;;;;;;5063389;28;20204;-69
2023/05/24 04:54:07;;;;;;;8.23;3.58;;;;;;;;;;5063157;28;20197;-69
2023/05/24 04:56:33;;;;;;;5.85;3.50;;;;;;;;;;5063463;28;20209;-69
2023/05/24 04:59:00;;;;;;;9.90;4.22;;;;;;;;;;5063486;28;20209;-69
2023/05/24 05:01:26;;;;;;;8.27;3.80;;;;;;;;;;5063320;28;20227;-69
2023/05/24 05:03:52;;;;;;;9.75;3.97;;;;;;;;;;5063159;28;20386;-69
2023/05/24 05:06:18;;;;;;;6.28;3.92;;;;;;;;;;5062965;28;20217;-69
2023/05/24 05:08:45;;;;;;;14.40;3.95;;;;;;;;;;5062953;28;20205;-69
2023/05/24 05:11:12;;;;;;;11.68;3.65;;;;;;;;;;5063129;28;20255;-69
2023/05/24 05:13:39;;;;;;;10.32;3.80;;;;;;;;;;5062834;28;20197;-69
2023/05/24 05:16:05;;;;;;;10.23;4.07;;;;;;;;;;5063133;28;20193;-69
2023/05/24 05:18:32;;;;;;;5.05;3.38;;;;;;;;;;5062928;28;20216;-69
2023/05/24 05:20:58;;;;;;;8.55;3.67;;;;;;;;;;5062791;28;20560;-69
2023/05/24 05:23:25;;;;;;;8.82;3.72;;;;;;;;;;5062648;28;20220;-69
2023/05/24 05:25:51;;;;;;;7.45;3.92;;;;;;;;;;5062900;28;20196;-69
2023/05/24 05:28:18;;;;;;;7.40;3.78;;;;;;;;;;5062879;28;20217;-69
2023/05/24 05:30:45;;;;;;;8.82;3.33;;;;;;;;;;5062386;28;20207;-69
2023/05/24 05:33:11;;;;;;;9.38;3.60;;;;;;;;;;5062393;28;20201;-69
2023/05/24 05:35:38;;;;;;;10.00;4.18;;;;;;;;;;5062573;28;20200;-68
2023/05/24 05:38:04;;;;;;;10.30;4.10;;;;;;;;;;5061782;28;20215;-68
2023/05/24 05:40:31;;;;;;;8.93;4.22;;;;;;;;;;5062632;28;20449;-68
2023/05/24 05:42:57;;;;;;;7.82;4.13;;;;;;;;;;5062317;28;20197;-68
2023/05/24 05:45:25;;;;;;;10.95;3.85;;;;;;;;;;5062520;28;20415;-68
2023/05/24 05:47:51;;;;;;;8.48;3.53;;;;;;;;;;5062286;28;20221;-68
2023/05/24 05:50:17;;;;;;;9.73;4.15;;;;;;;;;;5062194;28;20201;-68
2023/05/24 05:52:43;;;;;;;13.73;4.30;;;;;;;;;;5062343;28;20449;-68
2023/05/24 05:55:11;;;;;;;10.10;4.03;;;;;;;;;;5062588;28;20504;-68
2023/05/24 05:57:37;;;;;;;6.47;3.80;;;;;;;;;;5062170;28;20200;-68
2023/05/24 06:00:03;;;;;;;8.93;3.95;;;;;;;;;;5062144;28;20205;-68
2023/05/24 06:02:31;;;;;;;15.75;4.20;;;;;;;;;;5052349;28;20217;-68
2023/05/24 06:04:57;;;;;;;9.50;4.13;;;;;;;;;;5055876;28;20216;-68
2023/05/24 06:07:24;;;;;;;9.15;3.58;;;;;;;;;;5056430;28;20228;-68
2023/05/24 06:09:50;;;;;;;8.48;3.88;;;;;;;;;;5056525;28;20213;-69
2023/05/24 06:12:16;;;;;;;8.93;3.85;;;;;;;;;;5056519;28;20212;-69
2023/05/24 06:14:43;;;;;;;12.20;4.03;;;;;;;;;;5044247;28;20244;-69
2023/05/24 06:17:10;;;;;;;12.15;4.65;;;;;;;;;;5049752;28;20213;-69
2023/05/24 06:19:37;;;;;;;13.10;4.40;;;;;;;;;;5050799;28;20482;-69
2023/05/24 06:22:04;;;;;;;5.03;3.42;;;;;;;;;;5042474;28;20235;-70
2023/05/24 06:24:33;;;;;;;9.35;3.75;;;;;;;;;;5053606;28;20309;-70
2023/05/24 06:26:59;;;;;;;15.50;3.88;;;;;;;;;;5053368;28;20492;-70
2023/05/24 06:29:25;;;;;;;7.15;3.28;;;;;;;;;;5034455;28;20218;-70
2023/05/24 06:31:51;;;;;;;11.77;4.18;;;;;;;;;;5035327;28;20218;-60
2023/05/24 06:34:19;;;;;;;7.85;4.03;;;;;;;;;;5031522;28;20252;-59
2023/05/24 06:36:49;;;;;;;11.57;3.90;;;;;;;;;;5029755;28;20206;-60
2023/05/24 06:39:16;;;;;;;10.27;3.80;;;;;;;;;;5034438;28;20205;-60
2023/05/24 06:41:43;;;;;;;10.40;3.70;;;;;;;;;;5032304;28;20217;-60
2023/05/24 06:44:09;;;;;;;10.70;3.75;;;;;;;;;;5031477;28;20557;-61
2023/05/24 06:46:36;;;;;;;5.97;3.30;;;;;;;;;;5031672;28;20405;-60
2023/05/24 06:49:02;;;;;;;6.65;3.40;;;;;;;;;;5035620;28;20532;-59
2023/05/24 06:51:32;;;;;;;11.10;3.80;;;;;;;;;;5044200;28;20270;-59
2023/05/24 06:54:00;;;;;;;10.88;3.55;;;;;;;;;;5056160;28;20540;-59
2023/05/24 06:56:28;;;;;;;8.45;3.45;;;;;;;;;;5039375;28;20209;-59
2023/05/24 06:58:55;;;;;;;11.77;3.85;;;;;;;;;;5047585;28;20281;-59
2023/05/24 07:01:21;;;;;;;6.93;3.30;;;;;;;;;;5054454;28;20576;-60
2023/05/24 07:03:48;;;;;;;9.63;3.75;;;;;;;;;;5050349;28;20267;-60
2023/05/24 07:06:15;;;;;;;9.85;3.70;;;;;;;;;;5051893;28;20258;-60
2023/05/24 07:08:41;;;;;;;8.68;3.90;;;;;;;;;;5043449;28;20224;-60
2023/05/24 07:11:09;;;;;;;9.35;4.00;;;;;;;;;;5043307;28;20201;-60
2023/05/24 07:13:35;;;;;;;11.50;4.28;;;;;;;;;;5041935;28;20216;-60
2023/05/24 07:16:01;;;;;;;11.13;3.63;;;;;;;;;;5046616;28;20217;-60
2023/05/24 07:18:28;;;;;;;7.90;3.65;;;;;;;;;;5040143;28;20561;-60
2023/05/24 07:20:54;;;;;;;8.45;4.07;;;;;;;;;;5045284;28;20574;-60
2023/05/24 07:23:20;;;;;;;8.32;3.83;;;;;;;;;;5051745;28;20583;-60
2023/05/24 07:25:46;;;;;;;9.35;3.50;;;;;;;;;;5039098;28;20248;-60
2023/05/24 07:28:16;;;;;;;12.38;3.97;;;;;;;;;;5038767;28;20242;-60
2023/05/24 07:30:43;;;;;;;10.68;4.18;;;;;;;;;;5035715;28;20220;-60
2023/05/24 07:33:10;;;;;;;8.48;3.88;;;;;;;;;;5034969;28;20214;-60
2023/05/24 07:35:37;;;;;;;8.93;3.65;;;;;;;;;;5035667;28;20512;-60
2023/05/24 07:38:03;;;;;;;9.23;4.50;;;;;;;;;;5048064;28;20201;-60
2023/05/24 07:40:29;;;;;;;8.07;4.05;;;;;;;;;;5051016;28;20264;-60
2023/05/24 07:42:56;;;;;;;11.18;4.35;;;;;;;;;;5048854;28;20214;-60
2023/05/24 07:45:23;;;;;;;17.13;4.15;;;;;;;;;;5048142;28;20212;-60
2023/05/24 07:47:50;;;;;;;11.38;3.92;;;;;;;;;;5037671;28;20240;-60
2023/05/24 07:50:16;;;;;;;6.88;3.60;;;;;;;;;;5033405;28;20232;-60
2023/05/24 07:52:42;;;;;;;9.35;3.97;;;;;;;;;;5031683;28;20406;-60
2023/05/24 07:55:10;;;;;;;11.88;3.83;;;;;;;;;;5033059;28;20214;-60
2023/05/24 07:57:36;;;;;;;12.55;3.67;;;;;;;;;;5033029;28;20229;-60
2023/05/24 08:00:09;;;;;;;10.75;3.58;;;;;;;;;;5032818;28;20263;-60
2023/05/24 08:02:36;;;;;;;6.75;3.38;;;;;;;;;;5036089;28;20675;-60
2023/05/24 08:05:03;;;;;;;11.05;3.83;;;;;;;;;;5037490;28;20220;-60
2023/05/24 08:07:30;;;;;;;9.68;3.83;;;;;;;;;;5052725;28;20571;-60
2023/05/24 08:09:56;;;;;;;11.70;3.75;;;;;;;;;;5056857;28;20209;-60
2023/05/24 08:12:24;;;;;;;11.32;4.13;;;;;;;;;;5057313;28;20217;-60
2023/05/24 08:14:50;;;;;;;12.90;3.92;;;;;;;;;;5050089;28;20248;-60
2023/05/24 08:17:17;;;;;;;10.20;3.90;;;;;;;;;;5036960;28;20428;-60
2023/05/24 08:19:45;;;;;;;16.30;4.50;;;;;;;;;;5037683;28;20224;-60
2023/05/24 08:22:11;;;;;;;10.70;3.85;;;;;;;;;;5036289;28;20213;-60
2023/05/24 08:24:37;;;;;;;10.82;3.72;;;;;;;;;;5036667;28;20260;-60
2023/05/24 08:27:04;;;;;;;8.63;3.63;;;;;;;;;;5053226;28;20229;-60
2023/05/24 08:29:31;;;;;;;10.15;4.18;;;;;;;;;;5056839;28;20279;-60
2023/05/24 08:31:57;;;;;;;10.80;3.88;;;;;;;;;;5057441;28;20607;-60
2023/05/24 08:34:23;;;;;;;8.55;3.78;;;;;;;;;;5045477;28;20467;-60
2023/05/24 08:36:51;;;;;;;7.68;3.72;;;;;;;;;;5036452;28;20214;-60
2023/05/24 08:39:17;;;;;;;11.27;4.32;;;;;;;;;;5037207;28;20221;-60
2023/05/24 08:41:43;;;;;;;15.82;4.25;;;;;;;;;;5036472;28;20489;-60
2023/05/24 08:44:10;;;;;;;9.27;4.30;;;;;;;;;;5036397;28;20214;-60
2023/05/24 08:46:37;;;;;;;11.18;4.65;;;;;;;;;;5036352;28;20213;-60
2023/05/24 08:49:03;;;;;;;8.80;4.93;;;;;;;;;;5036755;28;20549;-60
2023/05/24 08:51:30;;;;;;;15.25;4.22;;;;;;;;;;5036757;28;20236;-60
2023/05/24 08:53:58;;;;;;;14.80;4.10;;;;;;;;;;5048219;28;20240;-60
2023/05/24 08:56:25;;;;;;;19.20;4.85;;;;;;;;;;5036967;28;20222;-61
2023/05/24 08:58:51;;;;;;;13.45;3.63;;;;;;;;;;5036756;28;20209;-61
2023/05/24 09:01:17;;;;;;;13.77;4.22;;;;;;;;;;5036679;28;20537;-61
2023/05/24 09:03:45;;;;;;;10.02;4.03;;;;;;;;;;5037401;28;20209;-61
2023/05/24 09:06:12;;;;;;;9.50;3.60;;;;;;;;;;5036933;28;20214;-61
2023/05/24 09:08:40;;;;;;;11.68;4.18;;;;;;;;;;5036442;28;20237;-61
2023/05/24 09:11:07;;;;;;;11.23;3.90;;;;;;;;;;5037112;28;20209;-60
2023/05/24 09:13:34;;;;;;;12.13;4.03;;;;;;;;;;5036328;28;20209;-61
2023/05/24 09:16:01;;;;;;;11.73;4.00;;;;;;;;;;5038539;28;20256;-61
2023/05/24 09:18:27;;;;;;;13.55;4.20;;;;;;;;;;5048127;28;20208;-61
2023/05/24 09:20:53;;;;;;;12.98;4.20;;;;;;;;;;5056900;28;20209;-61
2023/05/24 09:23:19;;;;;;;13.35;3.90;;;;;;;;;;5055259;28;20217;-61
2023/05/24 09:25:47;;;;;;;10.20;3.72;;;;;;;;;;5056751;28;20598;-60
2023/05/24 09:28:15;;;;;;;13.50;4.05;;;;;;;;;;5056459;28;20570;-61
2023/05/24 09:30:43;;;;;;;9.65;3.85;;;;;;;;;;5056929;28;20416;-61
2023/05/24 09:33:10;;;;;;;9.50;3.95;;;;;;;;;;5056207;28;20217;-61
2023/05/24 09:35:36;;;;;;;11.00;4.22;;;;;;;;;;5056016;28;20448;-60
2023/05/24 09:38:02;;;;;;;12.50;3.88;;;;;;;;;;5055399;28;20212;-61
2023/05/24 09:40:29;;;;;;;18.80;4.35;;;;;;;;;;5056054;28;20208;-62
2023/05/24 09:43:02;;;;;;;9.80;4.10;;;;;;;;;;5056228;28;20250;-61
2023/05/24 09:45:30;;;;;;;12.60;4.28;;;;;;;;;;5036956;28;20236;-60
2023/05/24 09:47:56;;;;;;;11.38;3.92;;;;;;;;;;5036427;28;20268;-60
2023/05/24 09:50:23;;;;;;;12.93;3.53;;;;;;;;;;5036547;28;20256;-60
2023/05/24 09:52:53;;;;;;;11.60;4.25;;;;;;;;;;5042790;28;20216;-60
2023/05/24 09:55:20;;;;;;;9.02;3.92;;;;;;;;;;5036539;28;20259;-60
2023/05/24 09:57:51;;;;;;;9.65;3.15;;;;;;;;;;5036722;28;20217;-60
2023/05/24 10:00:22;;;;;;;9.48;3.13;;;;;;;;;;5045242;28;20583;-60
2023/05/24 10:03:00;;;;;;;9.00;3.58;;;;;;;;;;5055505;28;20220;-60
2023/05/24 10:05:26;;;;;;;10.25;3.60;;;;;;;;;;5051726;28;20267;-60
2023/05/24 10:07:53;;;;;;;11.35;3.75;;;;;;;;;;5044031;28;20237;-60
2023/05/24 10:10:19;;;;;;;11.60;3.97;;;;;;;;;;5045059;28;20255;-60
2023/05/24 10:12:46;;;;;;;16.17;4.68;;;;;;;;;;5055523;28;20393;-60
2023/05/24 10:15:12;;;;;;;15.15;4.13;;;;;;;;;;5054275;28;20271;-60
2023/05/24 10:17:38;;;;;;;19.55;8.10;;;;;;;;;;5054976;28;20533;-59
2023/05/24 10:20:10;;;;;;;12.30;4.32;;;;;;;;;;5054410;28;20563;-60
2023/05/24 10:22:40;;;;;;;10.95;4.28;;;;;;;;;;5043941;28;20280;-59
2023/05/24 10:25:11;;;;;;;11.68;4.35;;;;;;;;;;5036472;28;20261;-59
2023/05/24 10:27:38;;;;;;;11.88;4.32;;;;;;;;;;5055909;28;20276;-59
2023/05/24 10:30:08;;;;;;;11.02;4.45;;;;;;;;;;5055397;28;20262;-59
2023/05/24 10:32:35;;;;;;;17.75;4.78;;;;;;;;;;5055703;28;20220;-59
2023/05/24 10:35:02;;;;;;;9.70;4.20;;;;;;;;;;5054846;28;20213;-59
2023/05/24 10:37:31;;;;;;;14.68;4.28;;;;;;;;;;5055091;28;20220;-58
2023/05/24 10:39:58;;;;;;;12.85;4.45;;;;;;;;;;5038094;28;20217;-59
2023/05/24 10:42:25;;;;;;;10.48;4.10;;;;;;;;;;5035374;28;20249;-61
2023/05/24 10:44:51;;;;;;;15.88;3.95;;;;;;;;;;5049325;28;20722;-59
2023/05/24 10:47:20;;;;;;;16.35;4.97;;;;;;;;;;5052250;28;20224;-59
2023/05/24 10:49:51;;;;;;;14.73;3.92;;;;;;;;;;5054754;28;20279;-59
2023/05/24 10:52:18;;;;;;;14.75;4.82;;;;;;;;;;5040411;28;20703;-60
2023/05/24 10:54:59;;;;;;;9.93;3.92;;;;;;;;;;5052129;28;20214;-60
2023/05/24 10:57:27;;;;;;;13.85;4.30;;;;;;;;;;5055237;28;20216;-59
2023/05/24 10:59:56;;;;;;;12.75;4.70;;;;;;;;;;5055563;28;20255;-60
2023/05/24 11:02:22;;;;;;;11.60;4.28;;;;;;;;;;5044480;28;20506;-60
2023/05/24 11:04:49;;;;;;;14.57;4.38;;;;;;;;;;5035427;28;20587;-60
2023/05/24 11:07:16;;;;;;;12.55;4.68;;;;;;;;;;5035421;28;20579;-59
2023/05/24 11:09:45;;;;;;;11.45;4.22;;;;;;;;;;5034765;28;20502;-59
2023/05/24 11:12:14;;;;;;;11.68;3.92;;;;;;;;;;5035521;28;20210;-59
2023/05/24 11:14:46;;;;;;;13.45;4.10;;;;;;;;;;5037296;28;20214;-60
2023/05/24 11:17:13;;;;;;;13.88;4.43;;;;;;;;;;5040271;28;20245;-60
2023/05/24 11:19:45;;;;;;;14.05;4.15;;;;;;;;;;5051125;28;20210;-59
2023/05/24 11:22:13;;;;;;;9.68;4.25;;;;;;;;;;5035081;28;20213;-60
2023/05/24 11:24:40;;;;;;;13.05;4.50;;;;;;;;;;5035379;28;20718;-59
2023/05/24 11:27:06;;;;;;;12.75;4.55;;;;;;;;;;5051466;28;20451;-59
2023/05/24 11:29:39;;;;;;;9.13;4.07;;;;;;;;;;5054957;28;20229;-59
2023/05/24 11:32:07;;;;;;;12.43;4.80;;;;;;;;;;5054866;28;20564;-59
2023/05/24 11:34:34;;;;;;;12.60;4.53;;;;;;;;;;5054230;28;20205;-60
2023/05/24 11:37:01;;;;;;;11.63;4.15;;;;;;;;;;5056142;28;20217;-59
2023/05/24 11:39:30;;;;;;;9.10;3.80;;;;;;;;;;5057813;28;20251;-60
2023/05/24 11:41:57;;;;;;;11.30;4.18;;;;;;;;;;5040984;28;20289;-60
2023/05/24 11:44:23;;;;;;;11.90;4.22;;;;;;;;;;5037304;28;20214;-59
2023/05/24 11:46:49;;;;;;;16.10;4.03;;;;;;;;;;5037980;28;20280;-62
2023/05/24 11:49:17;;;;;;;13.93;4.30;;;;;;;;;;5040400;28;20271;-60
2023/05/24 11:51:43;;;;;;;8.27;3.97;;;;;;;;;;5058556;28;20209;-59
2023/05/24 11:54:10;;;;;;;11.18;4.65;;;;;;;;;;5050463;28;20209;-59
2023/05/24 11:56:36;;;;;;;9.30;3.50;;;;;;;;;;5039051;28;20252;-62
2023/05/24 11:59:08;;;;;;;17.02;4.10;;;;;;;;;;5038096;28;20256;-59
2023/05/24 12:01:34;;;;;;;8.40;3.92;;;;;;;;;;5040815;28;20236;-59
2023/05/24 12:04:00;;;;;;;11.90;4.20;;;;;;;;;;5038156;28;20217;-60
2023/05/24 12:06:35;;;;;;;12.45;4.13;;;;;;;;;;5049331;28;20213;-58
2023/05/24 12:09:04;;;;;;;8.65;3.67;;;;;;;;;;5057146;28;20299;-59
2023/05/24 12:11:30;;;;;;;11.23;3.83;;;;;;;;;;5058614;28;20353;-61
2023/05/24 12:13:57;;;;;;;9.38;3.80;;;;;;;;;;5057241;28;20216;-60
2023/05/24 12:16:25;;;;;;;12.32;4.00;;;;;;;;;;5046129;28;20221;-60
2023/05/24 12:18:51;;;;;;;13.15;3.83;;;;;;;;;;5054336;28;20280;-59
2023/05/24 12:21:19;;;;;;;11.63;4.03;;;;;;;;;;5052064;28;20213;-59
2023/05/24 12:23:47;;;;;;;7.93;3.65;;;;;;;;;;5045195;28;20497;-59
2023/05/24 12:26:13;;;;;;;14.73;4.45;;;;;;;;;;5058263;28;20217;-60
2023/05/24 12:28:40;;;;;;;10.13;3.30;;;;;;;;;;5053306;28;20240;-59
2023/05/24 12:31:07;;;;;;;13.73;3.75;;;;;;;;;;5057686;28;20212;-59
2023/05/24 12:33:34;;;;;;;12.38;3.78;;;;;;;;;;5051118;28;20213;-61
2023/05/24 12:36:00;;;;;;;12.68;3.92;;;;;;;;;;5037392;28;20247;-62
2023/05/24 12:38:27;;;;;;;13.15;4.05;;;;;;;;;;5041249;28;20209;-60
2023/05/24 12:40:54;;;;;;;9.02;3.25;;;;;;;;;;5037525;28;20209;-58
2023/05/24 12:43:21;;;;;;;8.48;3.55;;;;;;;;;;5037972;28;20218;-61
2023/05/24 12:45:47;;;;;;;9.18;3.40;;;;;;;;;;5042793;28;20213;-61
2023/05/24 12:48:14;;;;;;;6.55;3.00;;;;;;;;;;5037479;28;20217;-60
2023/05/24 12:50:40;;;;;;;10.80;3.58;;;;;;;;;;5037660;28;20236;-59
2023/05/24 12:53:07;;;;;;;8.90;2.90;;;;;;;;;;5036660;28;20213;-60
2023/05/24 12:55:33;;;;;;;4.93;2.85;;;;;;;;;;5037927;28;20213;-59
2023/05/24 12:58:02;;;;;;;13.15;3.65;;;;;;;;;;5042728;28;20213;-60
2023/05/24 13:00:29;;;;;;;5.45;3.20;;;;;;;;;;5050827;28;20211;-60
2023/05/24 13:02:57;;;;;;;8.38;3.80;;;;;;;;;;5056865;28;20232;-60
2023/05/24 13:05:24;;;;;;;7.35;2.80;;;;;;;;;;5056874;28;20239;-59
2023/05/24 13:07:51;;;;;;;8.77;3.00;;;;;;;;;;5050930;28;20226;-59
2023/05/24 13:10:18;;;;;;;6.85;2.72;;;;;;;;;;5043895;28;20229;-59
2023/05/24 13:12:44;;;;;;;5.32;2.88;;;;;;;;;;5056978;28;20280;-59
2023/05/24 13:15:12;;;;;;;8.88;3.15;;;;;;;;;;5056677;28;20263;-60
2023/05/24 13:17:39;;;;;;;8.57;2.72;;;;;;;;;;5039406;28;20540;-59
2023/05/24 13:20:06;;;;;;;6.22;2.50;;;;;;;;;;5037378;28;20721;-60
2023/05/24 13:22:33;;;;;;;4.30;2.20;;;;;;;;;;5048672;28;20220;-59
2023/05/24 13:25:00;;;;;;;4.22;2.13;;;;;;;;;;5055562;28;20312;-59
2023/05/24 13:27:26;;;;;;;8.32;2.72;;;;;;;;;;5056867;28;20229;-59
2023/05/24 13:29:52;;;;;;;5.38;2.70;;;;;;;;;;5056208;28;20564;-59
2023/05/24 13:32:21;;;;;;;5.63;2.75;;;;;;;;;;5056671;28;20246;-59
2023/05/24 13:34:47;;;;;;;4.30;2.53;;;;;;;;;;5055978;28;20463;-63
2023/05/24 13:37:15;;;;;;;4.38;2.40;;;;;;;;;;5055196;28;20216;-59
2023/05/24 13:39:41;;;;;;;6.93;2.28;;;;;;;;;;5055647;28;20209;-59
2023/05/24 13:42:07;;;;;;;7.00;2.60;;;;;;;;;;5056361;28;20349;-59
2023/05/24 13:44:34;;;;;;;6.18;2.10;;;;;;;;;;5055606;28;20601;-59
2023/05/24 13:47:01;;;;;;;7.18;2.75;;;;;;;;;;5055422;28;20436;-60
2023/05/24 13:49:29;;;;;;;4.07;2.25;;;;;;;;;;5049430;28;20280;-60
2023/05/24 13:51:55;;;;;;;6.85;2.83;;;;;;;;;;5045075;28;20221;-59
2023/05/24 13:54:21;;;;;;;4.82;2.47;;;;;;;;;;5037614;28;20256;-59
2023/05/24 13:56:48;;;;;;;8.10;2.33;;;;;;;;;;5048944;28;20553;-59
2023/05/24 13:59:15;;;;;;;3.35;2.22;;;;;;;;;;5050648;28;20374;-61
2023/05/24 14:01:42;;;;;;;3.78;2.33;;;;;;;;;;5050464;28;20213;-60
2023/05/24 14:04:08;;;;;;;8.25;2.53;;;;;;;;;;5035138;28;20465;-62
2023/05/24 14:06:37;;;;;;;11.23;2.90;;;;;;;;;;5037315;28;20664;-61
2023/05/24 14:09:04;;;;;;;7.88;2.42;;;;;;;;;;5045826;28;20430;-60
2023/05/24 14:11:31;;;;;;;6.80;2.38;;;;;;;;;;5036937;28;20276;-60
2023/05/24 14:13:57;;;;;;;8.57;3.00;;;;;;;;;;5041990;28;20444;-60
2023/05/24 14:16:24;;;;;;;8.43;3.08;;;;;;;;;;5039190;28;20218;-60
2023/05/24 14:18:51;;;;;;;10.93;2.80;;;;;;;;;;5055533;28;20308;-60
2023/05/24 14:21:17;;;;;;;10.35;2.72;;;;;;;;;;5055611;28;20466;-60
2023/05/24 14:23:45;;;;;;;6.22;2.58;;;;;;;;;;5054817;28;20509;-60
2023/05/24 14:26:11;;;;;;;8.75;2.83;;;;;;;;;;5056642;28;20217;-60
2023/05/24 14:28:37;;;;;;;5.72;2.55;;;;;;;;;;5055570;28;20484;-61
2023/05/24 14:31:04;;;;;;;7.63;3.22;;;;;;;;;;5055718;28;20906;-60
2023/05/24 14:33:30;;;;;;;10.25;2.88;;;;;;;;;;5053948;28;20208;-60
2023/05/24 14:35:56;;;;;;;6.72;2.80;;;;;;;;;;5042648;28;20255;-60
2023/05/24 14:38:23;;;;;;;9.45;2.83;;;;;;;;;;5037927;28;20225;-60